createdAt,value
2022-10-19T00:01:20.184Z,30.00
2022-10-19T00:03:51.637Z,30.50
2022-10-19T00:06:25.603Z,25.38
2022-10-19T00:08:54.093Z,25.58
2022-10-19T00:11:24.918Z,27.85
2022-10-19T00:13:56.207Z,27.42
2022-10-19T00:16:25.711Z,27.10
2022-10-19T00:18:57.241Z,27.10
2022-10-19T00:21:25.787Z,22.40
2022-10-19T00:23:56.839Z,23.42
2022-10-19T00:26:25.805Z,19.45
2022-10-19T00:28:55.156Z,23.95
2022-10-19T00:31:23.329Z,23.73
2022-10-19T00:33:51.532Z,26.40
2022-10-19T00:36:23.644Z,25.40
2022-10-19T00:38:52.270Z,26.88
2022-10-19T00:41:21.222Z,21.52
2022-10-19T00:43:55.493Z,21.75
2022-10-19T00:46:23.720Z,23.00
2022-10-19T00:48:53.940Z,23.08
2022-10-19T00:51:24.853Z,24.77
2022-10-19T00:53:53.623Z,26.92
2022-10-19T00:56:21.833Z,21.77
2022-10-19T00:58:49.863Z,24.95
2022-10-19T01:01:26.924Z,24.65
2022-10-19T01:03:58.166Z,24.48
2022-10-19T01:06:28.206Z,27.65
2022-10-19T01:08:56.144Z,26.20
2022-10-19T01:11:33.709Z,25.40
2022-10-19T01:14:15.095Z,25.13
2022-10-19T01:16:52.863Z,26.25
2022-10-19T01:19:46.029Z,25.10
2022-10-19T01:22:29.825Z,22.85
2022-10-19T01:25:05.083Z,28.15
2022-10-19T01:27:54.311Z,24.08
2022-10-19T01:30:38.362Z,28.67
2022-10-19T01:33:28.668Z,30.15
2022-10-19T01:36:08.030Z,27.77
2022-10-19T01:38:44.096Z,22.75
2022-10-19T01:41:19.158Z,21.80
2022-10-19T01:43:56.086Z,22.35
2022-10-19T01:46:31.561Z,20.10
2022-10-19T01:49:03.998Z,18.65
2022-10-19T01:51:35.127Z,31.38
2022-10-19T01:54:07.892Z,40.70
2022-10-19T01:56:38.738Z,63.85
2022-10-19T01:59:10.821Z,55.20
2022-10-19T02:01:45.172Z,74.35
2022-10-19T02:04:17.240Z,46.00
2022-10-19T02:06:45.905Z,95.57
2022-10-19T02:09:18.123Z,136.18
2022-10-19T02:11:50.447Z,190.05
2022-10-19T02:14:24.524Z,160.45
2022-10-19T02:16:59.184Z,206.77
2022-10-19T02:19:27.269Z,156.80
2022-10-19T02:21:55.698Z,107.72
2022-10-19T02:24:23.654Z,121.25
2022-10-19T02:26:52.600Z,53.65
2022-10-19T02:29:20.964Z,188.48
2022-10-19T02:31:50.259Z,195.32
2022-10-19T02:34:19.889Z,182.35
2022-10-19T02:36:48.838Z,211.88
2022-10-19T02:39:17.026Z,176.80
2022-10-19T02:41:50.393Z,154.50
2022-10-19T02:44:24.359Z,135.27
2022-10-19T02:46:56.390Z,150.90
2022-10-19T02:49:26.547Z,175.57
2022-10-19T02:52:00.393Z,208.20
2022-10-19T02:54:29.117Z,199.93
2022-10-19T02:56:57.926Z,256.15
2022-10-19T02:59:26.465Z,311.98
2022-10-19T03:01:55.090Z,170.43
2022-10-19T03:04:23.211Z,143.82
2022-10-19T03:06:52.574Z,65.57
2022-10-19T03:09:21.018Z,230.50
2022-10-19T03:11:49.030Z,87.95
2022-10-19T03:14:17.072Z,281.88
2022-10-19T03:16:45.099Z,282.20
2022-10-19T03:19:13.265Z,230.73
2022-10-19T03:21:41.311Z,162.30
2022-10-19T03:24:11.157Z,328.30
2022-10-19T03:26:39.223Z,246.65
2022-10-19T03:29:07.216Z,268.73
2022-10-19T03:31:35.459Z,418.35
2022-10-19T03:34:03.473Z,345.85
2022-10-19T03:36:33.148Z,151.60
2022-10-19T03:39:04.219Z,164.23
2022-10-19T03:41:35.395Z,126.30
2022-10-19T03:44:03.390Z,89.35
2022-10-19T03:46:31.458Z,89.28
2022-10-19T03:48:59.512Z,110.28
2022-10-19T03:51:29.987Z,65.82
2022-10-19T03:54:01.733Z,82.38
2022-10-19T03:56:31.404Z,93.72
2022-10-19T03:59:02.953Z,65.25
2022-10-19T04:01:33.846Z,82.20
2022-10-19T04:04:03.367Z,85.70
2022-10-19T04:06:33.788Z,96.95
2022-10-19T04:09:01.876Z,97.43
2022-10-19T04:11:32.115Z,113.28
2022-10-19T04:14:03.163Z,84.93
2022-10-19T04:16:32.680Z,67.40
2022-10-19T04:19:02.080Z,71.57
2022-10-19T04:21:32.818Z,59.78
2022-10-19T04:24:03.384Z,69.32
2022-10-19T04:26:31.975Z,67.75
2022-10-19T04:29:02.685Z,69.75
2022-10-19T04:31:33.943Z,56.55
2022-10-19T04:34:02.275Z,53.78
2022-10-19T04:36:30.528Z,54.97
2022-10-19T04:38:59.712Z,47.15
2022-10-19T04:41:28.575Z,52.20
2022-10-19T04:44:00.581Z,47.10
2022-10-19T04:46:31.581Z,50.00
2022-10-19T04:49:00.725Z,52.22
2022-10-19T04:51:31.158Z,53.05
2022-10-19T04:54:00.169Z,54.50
2022-10-19T04:56:30.892Z,47.60
2022-10-19T04:59:00.772Z,48.10
2022-10-19T05:01:34.059Z,49.20
2022-10-19T05:04:04.036Z,47.28
2022-10-19T05:06:32.960Z,51.13
2022-10-19T05:09:01.738Z,49.08
2022-10-19T05:11:30.538Z,44.45
2022-10-19T05:13:58.879Z,42.25
2022-10-19T05:16:27.348Z,44.60
2022-10-19T05:18:59.069Z,40.63
2022-10-19T05:21:29.788Z,43.33
2022-10-19T05:23:59.399Z,52.33
2022-10-19T05:26:30.301Z,45.05
2022-10-19T05:29:02.251Z,41.33
2022-10-19T05:31:33.224Z,42.88
2022-10-19T05:36:38.006Z,43.92
2022-10-19T05:39:09.269Z,46.15
2022-10-19T05:41:38.210Z,45.10
2022-10-19T05:44:07.616Z,39.67
2022-10-19T05:46:36.167Z,42.50
2022-10-19T05:49:06.336Z,39.53
2022-10-19T05:51:35.525Z,44.15
2022-10-19T05:54:04.104Z,40.35
2022-10-19T05:56:34.385Z,44.00
2022-10-19T05:59:05.432Z,42.25
2022-10-19T06:01:34.773Z,45.22
2022-10-19T06:04:07.559Z,44.65
2022-10-19T06:06:38.730Z,40.00
2022-10-19T06:09:08.233Z,42.45
2022-10-19T06:11:39.752Z,43.15
2022-10-19T06:14:12.433Z,41.95
2022-10-19T06:16:41.020Z,44.55
2022-10-19T06:19:11.615Z,47.40
2022-10-19T06:21:43.411Z,46.97
2022-10-19T06:24:18.553Z,45.58
2022-10-19T06:26:51.337Z,44.58
2022-10-19T06:29:26.925Z,52.72
2022-10-19T06:31:59.943Z,46.50
2022-10-19T06:34:30.552Z,43.60
2022-10-19T06:36:59.143Z,43.15
2022-10-19T06:39:28.697Z,44.90
2022-10-19T06:42:01.120Z,45.85
2022-10-19T06:44:32.414Z,44.53
2022-10-19T06:47:01.226Z,45.33
2022-10-19T06:49:31.686Z,48.38
2022-10-19T06:52:02.895Z,41.42
2022-10-19T06:54:34.369Z,45.25
2022-10-19T06:57:03.297Z,41.80
2022-10-19T06:59:32.586Z,42.92
2022-10-19T07:02:01.450Z,46.65
2022-10-19T07:04:32.016Z,45.50
2022-10-19T07:07:01.992Z,45.03
2022-10-19T07:09:30.944Z,42.00
2022-10-19T07:12:00.793Z,42.35
2022-10-19T07:14:29.878Z,41.58
2022-10-19T07:16:59.109Z,43.15
2022-10-19T07:19:28.674Z,40.88
2022-10-19T07:22:03.117Z,43.88
2022-10-19T07:24:31.969Z,38.53
2022-10-19T07:27:09.702Z,42.45
2022-10-19T07:29:38.561Z,38.30
2022-10-19T07:32:07.562Z,38.15
2022-10-19T07:34:36.209Z,42.40
2022-10-19T07:37:05.740Z,35.55
2022-10-19T07:39:34.041Z,34.60
2022-10-19T07:42:02.213Z,36.20
2022-10-19T07:44:31.370Z,39.95
2022-10-19T07:47:00.138Z,34.33
2022-10-19T07:49:28.735Z,34.55
2022-10-19T07:51:57.409Z,37.65
2022-10-19T07:54:29.651Z,41.40
2022-10-19T07:56:57.601Z,49.88
2022-10-19T07:59:25.741Z,42.00
2022-10-19T08:01:54.620Z,33.63
2022-10-19T08:07:13.105Z,27.95
2022-10-19T08:09:58.038Z,26.73
2022-10-19T08:12:26.420Z,29.25
2022-10-19T08:14:54.568Z,28.65
2022-10-19T08:17:22.756Z,26.10
2022-10-19T08:19:50.830Z,25.70
2022-10-19T08:22:19.538Z,28.08
2022-10-19T08:24:49.941Z,26.67
2022-10-19T08:27:17.992Z,27.83
2022-10-19T08:29:46.496Z,21.25
2022-10-19T08:32:15.315Z,26.05
2022-10-19T08:34:43.444Z,26.67
2022-10-19T08:37:25.646Z,24.33
2022-10-19T08:39:57.827Z,18.45
2022-10-19T08:42:33.695Z,21.85
2022-10-19T08:45:23.414Z,20.17
2022-10-19T08:48:00.798Z,17.15
2022-10-19T08:50:39.059Z,17.60
2022-10-19T08:53:09.150Z,19.35
2022-10-19T08:55:50.675Z,18.60
2022-10-19T08:58:37.326Z,18.60
2022-10-19T09:01:11.873Z,21.10
2022-10-19T09:06:34.176Z,21.33
2022-10-19T09:09:03.145Z,21.58
2022-10-19T09:11:40.502Z,20.95
2022-10-19T09:14:17.731Z,18.73
2022-10-19T09:16:46.469Z,25.50
2022-10-19T09:19:25.742Z,19.67
2022-10-19T09:21:58.598Z,19.50
2022-10-19T09:24:33.625Z,17.55
2022-10-19T09:27:04.748Z,17.55
2022-10-19T09:29:39.866Z,18.23
2022-10-19T09:32:14.550Z,19.80
2022-10-19T09:34:46.575Z,15.10
2022-10-19T09:37:23.179Z,19.65
2022-10-19T09:39:55.565Z,15.20
2022-10-19T09:42:29.567Z,13.38
2022-10-19T09:45:00.739Z,16.83
2022-10-19T09:47:36.089Z,17.90
2022-10-19T09:50:15.253Z,14.52
2022-10-19T09:52:46.425Z,13.00
2022-10-19T09:55:31.773Z,12.27
2022-10-19T09:58:04.636Z,14.57
2022-10-19T10:00:38.646Z,15.23
2022-10-19T10:03:08.641Z,13.53
2022-10-19T10:05:40.039Z,14.60
2022-10-19T10:08:16.651Z,17.58
2022-10-19T10:10:47.575Z,16.17
2022-10-19T10:13:21.460Z,15.85
2022-10-19T10:15:52.233Z,15.53
2022-10-19T10:18:20.675Z,16.05
2022-10-19T10:21:01.455Z,18.52
2022-10-19T10:23:32.349Z,17.75
2022-10-19T10:26:01.800Z,15.45
2022-10-19T10:28:32.075Z,15.60
2022-10-19T10:31:03.645Z,15.60
2022-10-19T10:33:44.216Z,18.48
2022-10-19T10:36:14.639Z,15.15
2022-10-19T10:38:47.072Z,16.20
2022-10-19T10:41:18.295Z,15.50
2022-10-19T10:43:59.716Z,17.75
2022-10-19T10:46:35.720Z,16.52
2022-10-19T10:49:05.282Z,20.83
2022-10-19T10:51:41.591Z,17.73
2022-10-19T10:54:18.175Z,18.63
2022-10-19T10:57:01.799Z,15.15
2022-10-19T10:59:44.681Z,17.70
2022-10-19T11:04:59.247Z,13.43
2022-10-19T11:07:31.159Z,13.93
2022-10-19T11:10:02.691Z,13.60
2022-10-19T11:12:37.701Z,11.13
2022-10-19T11:17:52.949Z,13.27
2022-10-19T11:20:22.130Z,15.48
2022-10-19T11:22:55.823Z,12.45
2022-10-19T11:25:32.416Z,12.07
2022-10-19T11:28:15.160Z,11.80
2022-10-19T11:30:58.472Z,11.65
2022-10-19T11:36:31.429Z,12.30
2022-10-19T11:39:33.038Z,14.05
2022-10-19T11:42:09.883Z,14.02
2022-10-19T11:44:51.558Z,15.93
2022-10-19T11:47:36.631Z,14.55
2022-10-19T11:50:16.579Z,15.75
2022-10-19T11:52:52.754Z,15.10
2022-10-19T11:55:34.162Z,14.85
2022-10-19T11:58:13.577Z,13.13
2022-10-19T12:00:47.961Z,13.93
2022-10-19T12:04:01.445Z,13.68
2022-10-19T12:06:37.455Z,14.95
2022-10-19T12:09:25.554Z,15.85
2022-10-19T12:12:17.204Z,17.63
2022-10-19T12:14:50.138Z,18.23
2022-10-19T12:17:25.555Z,18.33
2022-10-19T12:20:00.832Z,17.20
2022-10-19T12:22:31.420Z,14.70
2022-10-19T12:25:02.590Z,14.50
2022-10-19T12:27:35.418Z,13.75
2022-10-19T12:30:08.175Z,16.75
2022-10-19T12:32:45.873Z,15.07
2022-10-19T12:35:40.562Z,15.15
2022-10-19T12:38:14.095Z,13.90
2022-10-19T12:40:48.122Z,15.10
2022-10-19T12:48:22.963Z,18.13
2022-10-19T12:51:15.527Z,11.63
2022-10-19T12:53:47.825Z,13.35
2022-10-19T12:56:22.238Z,11.13
2022-10-19T12:58:54.424Z,10.13
2022-10-19T13:01:26.832Z,9.60
2022-10-19T13:04:09.889Z,9.32
2022-10-19T13:06:42.772Z,11.27
2022-10-19T13:09:25.860Z,9.88
2022-10-19T13:12:43.277Z,8.68
2022-10-19T13:15:56.005Z,11.05
2022-10-19T13:19:09.246Z,8.88
2022-10-19T13:22:24.807Z,10.55
2022-10-19T13:25:28.435Z,9.25
2022-10-19T13:28:01.278Z,9.70
2022-10-19T13:31:06.194Z,10.18
2022-10-19T13:33:58.346Z,11.48
2022-10-19T13:36:27.366Z,8.90
2022-10-19T13:39:10.428Z,8.85
2022-10-19T13:41:53.983Z,10.45
2022-10-19T13:44:29.422Z,7.82
2022-10-19T13:47:34.631Z,8.10
2022-10-19T13:50:18.065Z,7.00
2022-10-19T13:53:13.571Z,7.95
2022-10-19T13:56:10.441Z,10.95
2022-10-19T13:59:13.429Z,10.15
2022-10-19T14:01:52.138Z,8.68
2022-10-19T14:04:26.483Z,9.68
2022-10-19T14:06:58.251Z,12.82
2022-10-19T14:09:52.132Z,9.55
2022-10-19T14:12:25.266Z,10.55
2022-10-19T14:14:54.966Z,9.73
2022-10-19T14:17:25.506Z,11.70
2022-10-19T14:19:55.436Z,9.52
2022-10-19T14:22:30.110Z,8.80
2022-10-19T14:27:31.376Z,10.95
2022-10-19T14:30:01.146Z,8.95
2022-10-19T14:32:30.719Z,10.30
2022-10-19T14:35:05.677Z,7.60
2022-10-19T14:37:36.412Z,8.38
2022-10-19T14:40:08.293Z,8.43
2022-10-19T14:42:39.652Z,8.60
2022-10-19T14:45:15.438Z,10.98
2022-10-19T14:47:58.113Z,8.70
2022-10-19T14:50:43.723Z,9.52
2022-10-19T14:53:25.123Z,11.25
2022-10-19T14:55:58.053Z,7.85
2022-10-19T14:58:33.092Z,8.23
2022-10-19T15:01:02.893Z,8.63
2022-10-19T15:03:32.376Z,8.65
2022-10-19T15:06:03.813Z,6.57
2022-10-19T15:08:39.053Z,12.80
2022-10-19T15:11:09.016Z,8.75
2022-10-19T15:13:43.539Z,6.93
2022-10-19T15:16:47.271Z,9.30
2022-10-19T15:19:20.378Z,8.18
2022-10-19T15:21:48.593Z,10.82
2022-10-19T15:24:27.132Z,10.23
2022-10-19T15:27:08.844Z,8.10
2022-10-19T15:29:37.906Z,8.57
2022-10-19T15:32:17.149Z,10.68
2022-10-19T15:34:48.216Z,11.60
2022-10-19T15:37:21.241Z,13.45
2022-10-19T15:39:49.843Z,10.38
2022-10-19T15:42:39.203Z,10.43
2022-10-19T15:45:30.130Z,12.80
2022-10-19T15:48:27.277Z,15.40
2022-10-19T15:50:57.945Z,11.23
2022-10-19T15:53:27.652Z,9.60
2022-10-19T15:55:55.799Z,10.77
2022-10-19T15:58:24.134Z,12.35
2022-10-19T16:00:52.179Z,12.60
2022-10-19T16:03:20.281Z,10.95
2022-10-19T16:05:48.843Z,13.88
2022-10-19T16:08:18.193Z,14.32
2022-10-19T16:10:46.188Z,13.95
2022-10-19T16:13:14.265Z,13.02
2022-10-19T16:15:42.256Z,15.38
2022-10-19T16:18:11.400Z,15.57
2022-10-19T16:20:41.937Z,12.95
2022-10-19T16:23:12.679Z,15.45
2022-10-19T16:25:42.562Z,13.38
2022-10-19T16:28:10.949Z,15.82
2022-10-19T16:30:41.377Z,15.93
2022-10-19T16:33:10.274Z,18.15
2022-10-19T16:35:39.149Z,13.88
2022-10-19T16:38:07.151Z,15.15
2022-10-19T16:40:35.229Z,14.57
2022-10-19T16:43:04.956Z,16.63
2022-10-19T16:45:33.499Z,15.25
2022-10-19T16:48:01.462Z,14.13
2022-10-19T16:50:29.902Z,18.67
2022-10-19T16:53:06.122Z,30.48
2022-10-19T16:55:34.138Z,19.90
2022-10-19T16:58:02.370Z,15.68
2022-10-19T17:00:32.372Z,16.67
2022-10-19T17:03:00.588Z,17.00
2022-10-19T17:05:28.611Z,18.27
2022-10-19T17:07:56.951Z,19.15
2022-10-19T17:10:25.650Z,16.00
2022-10-19T17:12:53.770Z,16.85
2022-10-19T17:15:42.982Z,19.60
2022-10-19T17:18:11.969Z,18.67
2022-10-19T17:20:40.199Z,21.13
2022-10-19T17:23:08.228Z,21.98
2022-10-19T17:25:38.082Z,23.88
2022-10-19T17:28:06.125Z,21.20
2022-10-19T17:30:34.164Z,22.33
2022-10-19T17:33:02.129Z,21.00
2022-10-19T17:35:31.520Z,28.88
2022-10-19T17:37:59.565Z,26.48
2022-10-19T17:40:27.515Z,27.75
2022-10-19T17:42:55.488Z,27.85
2022-10-19T17:45:23.631Z,24.02
2022-10-19T17:47:51.784Z,27.20
2022-10-19T17:50:19.783Z,31.92
2022-10-19T17:52:49.480Z,23.58
2022-10-19T17:55:17.678Z,28.48
2022-10-19T17:57:45.877Z,22.73
2022-10-19T18:00:15.075Z,21.30
2022-10-19T18:02:45.826Z,21.48
2022-10-19T18:05:13.956Z,18.98
2022-10-19T18:07:44.262Z,18.90
2022-10-19T18:10:15.469Z,19.08
2022-10-19T18:12:43.501Z,21.83
2022-10-19T18:15:11.850Z,20.15
2022-10-19T18:17:40.055Z,21.80
2022-10-19T18:20:10.284Z,20.67
2022-10-19T18:22:38.495Z,20.30
2022-10-19T18:25:07.331Z,18.92
2022-10-19T18:27:37.374Z,19.77
2022-10-19T18:30:06.718Z,19.33
2022-10-19T18:32:36.210Z,20.65
2022-10-19T18:35:08.940Z,19.88
2022-10-19T18:37:38.349Z,19.30
2022-10-19T18:40:10.730Z,21.25
2022-10-19T18:42:40.205Z,20.00
2022-10-19T18:45:09.453Z,18.52
2022-10-19T18:47:39.162Z,18.67
2022-10-19T18:50:07.837Z,17.63
2022-10-19T18:52:37.826Z,19.10
2022-10-19T18:55:06.756Z,18.67
2022-10-19T18:57:35.116Z,18.02
2022-10-19T19:00:05.012Z,21.60
2022-10-19T19:02:46.357Z,17.75
2022-10-19T19:05:15.074Z,18.23
2022-10-19T19:07:43.043Z,16.17
2022-10-19T19:10:11.150Z,16.40
2022-10-19T19:12:39.147Z,16.70
2022-10-19T19:15:10.719Z,17.40
2022-10-19T19:17:39.731Z,20.00
2022-10-19T19:20:08.590Z,19.92
2022-10-19T19:22:37.327Z,18.20
2022-10-19T19:25:06.458Z,21.05
2022-10-19T19:27:34.801Z,19.77
2022-10-19T19:30:05.028Z,18.73
2022-10-19T19:32:36.079Z,20.17
2022-10-19T19:35:04.378Z,17.80
2022-10-19T19:37:32.504Z,20.00
2022-10-19T19:40:00.638Z,20.83
2022-10-19T19:42:29.111Z,21.85
2022-10-19T19:44:57.082Z,24.45
2022-10-19T19:47:25.320Z,22.33
2022-10-19T19:49:54.942Z,22.45
2022-10-19T19:52:22.966Z,20.90
2022-10-19T19:54:51.011Z,25.67
2022-10-19T19:57:19.319Z,24.23
2022-10-19T19:59:47.324Z,25.70
2022-10-19T20:02:16.470Z,27.80
2022-10-19T20:04:44.456Z,27.13
2022-10-19T20:07:13.902Z,28.98
2022-10-19T20:09:42.517Z,28.00
2022-10-19T20:12:10.610Z,27.80
2022-10-19T20:14:38.675Z,26.25
2022-10-19T20:17:07.518Z,29.88
2022-10-19T20:19:35.640Z,26.05
2022-10-19T20:22:05.828Z,27.30
2022-10-19T20:24:37.734Z,26.63
2022-10-19T20:27:08.843Z,33.88
2022-10-19T20:29:37.984Z,28.27
2022-10-19T20:32:06.145Z,29.38
2022-10-19T20:34:36.224Z,26.98
2022-10-19T20:37:04.314Z,31.42
2022-10-19T20:39:32.551Z,36.95
2022-10-19T20:42:02.448Z,35.55
2022-10-19T20:44:30.865Z,31.90
2022-10-19T20:46:59.022Z,33.88
2022-10-19T20:49:27.098Z,34.67
2022-10-19T20:51:56.268Z,30.60
2022-10-19T20:54:24.436Z,32.20
2022-10-19T20:56:52.498Z,38.13
2022-10-19T20:59:25.261Z,37.25
2022-10-19T21:01:56.803Z,38.47
2022-10-19T21:04:26.574Z,36.90
2022-10-19T21:06:54.560Z,36.97
2022-10-19T21:09:26.593Z,37.63
2022-10-19T21:11:54.596Z,35.65
2022-10-19T21:14:28.335Z,43.35
2022-10-19T21:16:58.382Z,41.30
2022-10-19T21:19:28.429Z,39.20
2022-10-19T21:21:58.476Z,40.28
2022-10-19T21:24:29.428Z,40.10
2022-10-19T21:26:57.381Z,40.00
2022-10-19T21:29:27.277Z,41.25
2022-10-19T21:31:55.584Z,39.75
2022-10-19T21:34:25.094Z,52.38
2022-10-19T21:36:54.160Z,42.08
2022-10-19T21:39:22.945Z,46.28
2022-10-19T21:41:51.952Z,46.55
2022-10-19T21:44:23.030Z,50.38
2022-10-19T21:46:52.522Z,45.05
2022-10-19T21:49:20.657Z,46.70
2022-10-19T21:51:51.805Z,44.22
2022-10-19T21:54:22.111Z,46.03
2022-10-19T21:56:50.232Z,46.25
2022-10-19T21:59:18.433Z,43.33
2022-10-19T22:01:46.522Z,49.03
2022-10-19T22:04:17.999Z,40.92
2022-10-19T22:06:46.276Z,46.75
2022-10-19T22:09:16.158Z,43.65
2022-10-19T22:11:44.917Z,42.42
2022-10-19T22:14:15.182Z,50.95
2022-10-19T22:16:44.145Z,60.55
2022-10-19T22:19:16.032Z,52.30
2022-10-19T22:21:44.260Z,50.25
2022-10-19T22:24:14.245Z,52.75
2022-10-19T22:26:44.632Z,48.50
2022-10-19T22:29:12.854Z,49.08
2022-10-19T22:31:41.277Z,56.22
2022-10-19T22:34:11.362Z,53.65
2022-10-19T22:36:40.847Z,47.08
2022-10-19T22:39:09.395Z,60.17
2022-10-19T22:41:37.423Z,48.65
2022-10-19T22:44:05.823Z,48.72
2022-10-19T22:46:33.901Z,48.63
2022-10-19T22:49:01.968Z,50.85
2022-10-19T22:51:30.030Z,53.40
2022-10-19T22:53:59.551Z,59.22
2022-10-19T22:56:27.948Z,49.88
2022-10-19T22:58:59.214Z,65.18
2022-10-19T23:01:27.695Z,60.83
2022-10-19T23:04:48.090Z,60.28
2022-10-19T23:07:16.543Z,57.78
2022-10-19T23:09:46.147Z,50.25
2022-10-19T23:12:14.179Z,51.47
2022-10-19T23:14:42.113Z,55.60
2022-10-19T23:17:10.197Z,49.90
2022-10-19T23:19:38.786Z,51.05
2022-10-19T23:22:07.663Z,47.80
2022-10-19T23:24:35.626Z,57.95
2022-10-19T23:27:05.246Z,50.47
2022-10-19T23:29:33.211Z,55.05
2022-10-19T23:32:01.263Z,59.17
2022-10-19T23:34:29.824Z,49.45
2022-10-19T23:36:57.820Z,58.90
2022-10-19T23:39:25.742Z,56.15
2022-10-19T23:41:53.779Z,57.47
2022-10-19T23:44:23.110Z,59.25
2022-10-19T23:46:51.969Z,57.40
2022-10-19T23:49:20.040Z,58.03
2022-10-19T23:51:48.021Z,43.88
2022-10-19T23:54:16.049Z,46.92
2022-10-19T23:56:44.142Z,47.50
2022-10-19T23:59:12.312Z,57.85
